Saturday, April 25, 2015, 7:12 PM EDT

KPTB, Petersburg, Dinwiddie County Airport

Location: Petersburg, VA, United States Lat: 37.183
Local Time: 7:12 PM EDT (23:12 GMT) Lon: -77.517
Time Zone: US/Eastern Elev: 193 ft

Show me the last for .
Show Decoded

2015-04-25 18:55 METAR KPTB 252255Z AUTO 08005KT 2 1/2SM -RA OVC006 09/08 A2975 RMK AO2 P0003
                 T00850077 =
2015-04-25 18:35 METAR KPTB 252235Z AUTO 05004KT 2SM -RA OVC008 09/08 A2977 RMK AO2 P0002
                 T00850076 =
2015-04-25 18:15 METAR KPTB 252215Z AUTO 07005KT 2SM -RA BKN006 OVC010 08/08 A2977 RMK AO2 P0001
                 T00830075 =
2015-04-25 17:55 METAR KPTB 252155Z AUTO 09005KT 2SM -DZ OVC004 09/08 A2978 RMK AO2 P0008
                 T00850076 =
2015-04-25 17:35 METAR KPTB 252135Z AUTO 10004KT 2SM RA OVC004 09/08 A2978 RMK AO2 P0006
                 T00870080 =
2015-04-25 17:15 METAR KPTB 252115Z AUTO 08003KT 3SM -RA BKN006 BKN011 OVC017 09/08 A2980 RMK AO2
                 P0003 T00880080 =
2015-04-25 16:35 METAR KPTB 252035Z AUTO 07004KT 3SM -RA SCT006 BKN016 OVC021 09/08 A2980 RMK AO2
                 P0010 T00870078 =
2015-04-25 15:55 METAR KPTB 251955Z AUTO 06006KT 3SM RA SCT006 BKN027 OVC043 09/08 A2982 RMK AO2
                 P0010 T00920082 =
2015-04-25 15:35 METAR KPTB 251935Z AUTO 05007KT 2 1/2SM RA SCT014 SCT026 OVC043 09/08 A2983 RMK
                 AO2 P0005 T00920079 =
2015-04-25 15:15 METAR KPTB 251915Z AUTO 06005KT 5SM -RA SCT012 BKN048 OVC065 09/08 A2984 RMK AO2
                 P0002 T00920075 =
2015-04-25 14:55 METAR KPTB 251855Z AUTO 08005KT 5SM RA SCT010 BKN050 OVC085 10/08 A2985 RMK AO2
                 P0005 T00950075 =
2015-04-25 14:35 METAR KPTB 251835Z AUTO 10005KT 7SM -RA BKN050 BKN065 OVC085 10/07 A2987 RMK AO2
                 P0003 T00960066 =
2015-04-25 14:15 METAR KPTB 251815Z AUTO 06003KT 5SM RA BKN050 BKN060 OVC085 10/07 A2988 RMK AO2
                 P0001 T00980067 =
2015-04-25 13:55 METAR KPTB 251755Z AUTO 06003KT 7SM -RA OVC050 10/06 A2989 RMK AO2 P0005 60007
                 T01000064 10109 20093 =
2015-04-25 13:35 METAR KPTB 251735Z AUTO 00000KT 5SM RA OVC050 10/06 A2991 RMK AO2 P0003
                 T01020057 =
2015-04-25 13:15 METAR KPTB 251715Z AUTO 00000KT 7SM -RA OVC055 10/07 A2990 RMK AO2 P0001
                 T01020068 =
2015-04-25 12:55 METAR KPTB 251655Z AUTO 05003KT 10SM -DZ OVC065 11/05 A2990 RMK AO2 T01050051 =
2015-04-25 12:35 METAR KPTB 251635Z AUTO 10005KT 10SM OVC065 11/05 A2990 RMK AO2 T01060051 =
2015-04-25 12:15 METAR KPTB 251615Z AUTO 08006KT 10SM -RA OVC065 11/06 A2989 RMK AO2 T01070057 =
2015-04-25 11:55 METAR KPTB 251555Z AUTO 08006KT 10SM -RA OVC075 11/06 A2993 RMK AO2 T01050060 =
2015-04-25 11:35 METAR KPTB 251535Z AUTO 08005KT 10SM -RA BKN080 OVC085 10/06 A2994 RMK AO2
                 T01040060 =
2015-04-25 11:15 METAR KPTB 251515Z AUTO 06005KT 10SM -RA OVC080 10/06 A2995 RMK AO2 T01030058 =
2015-04-25 10:55 METAR KPTB 251455Z AUTO 06005KT 10SM -RA OVC090 10/05 A2996 RMK AO2 60002
                 T01020052 =
2015-04-25 10:35 METAR KPTB 251435Z AUTO 00000KT 10SM -RA OVC090 10/06 A2997 RMK AO2 T01040056 =
2015-04-25 10:15 METAR KPTB 251415Z AUTO 04003KT 10SM -RA SCT060 SCT070 OVC090 10/05 A2998 RMK
                 AO2 T01010048 =
2015-04-25 09:55 METAR KPTB 251355Z AUTO 00000KT 10SM -RA SCT060 SCT070 OVC090 10/05 A2998 RMK
                 AO2 P0002 T00990050 =
2015-04-25 09:35 METAR KPTB 251335Z AUTO 02005KT 10SM -RA BKN080 OVC090 09/05 A2997 RMK AO2 P0002
                 T00930051 =
2015-04-25 09:15 METAR KPTB 251315Z AUTO 00000KT 7SM -RA SCT055 SCT070 OVC090 10/05 A2998 RMK AO2
                 T00960046 =
2015-04-25 08:55 METAR KPTB 251255Z AUTO 01003KT 10SM -RA SCT070 OVC080 10/04 A2998 RMK AO2
                 T00990038 =
2015-04-25 08:35 METAR KPTB 251235Z AUTO 01004KT 10SM -RA OVC090 10/05 A2996 RMK AO2 T01000045 =
2015-04-25 08:15 METAR KPTB 251215Z AUTO 03004KT 10SM OVC110 10/06 A2995 RMK AO2 T00990056 =
2015-04-25 07:55 METAR KPTB 251155Z AUTO 00000KT 10SM BKN110 09/07 A2995 RMK AO2 T00940067 10094
                 20036 =
2015-04-25 07:35 METAR KPTB 251135Z AUTO 00000KT 10SM BKN110 09/07 A2995 RMK AO2 T00850070 =
2015-04-25 07:15 METAR KPTB 251115Z AUTO 00000KT 10SM OVC100 08/07 A2996 RMK AO2 T00750065 =
2015-04-25 06:55 METAR KPTB 251055Z AUTO 00000KT 10SM OVC100 07/06 A2996 RMK AO2 T00730063 =
2015-04-25 06:35 METAR KPTB 251035Z AUTO 00000KT 10SM OVC100 07/06 A2995 RMK AO2 T00670060 =
2015-04-25 06:15 METAR KPTB 251015Z AUTO 00000KT 10SM OVC100 06/06 A2995 RMK AO2 T00620055 =
2015-04-25 05:55 METAR KPTB 250955Z AUTO 00000KT 10SM OVC100 05/05 A2995 RMK AO2 T00530048 =
2015-04-25 05:35 METAR KPTB 250935Z AUTO 00000KT 10SM BKN100 04/04 A2995 RMK AO2 T00440040 =
2015-04-25 05:15 METAR KPTB 250915Z AUTO 00000KT 10SM BKN100 04/04 A2994 RMK AO2 T00400035 =
2015-04-25 04:35 METAR KPTB 250835Z AUTO 00000KT 10SM CLR 04/04 A2995 RMK AO2 T00410035 =
2015-04-25 04:15 METAR KPTB 250815Z AUTO 00000KT 10SM CLR 04/03 A2995 RMK AO2 T00400032 =
2015-04-25 03:55 METAR KPTB 250755Z AUTO 00000KT 10SM SCT110 05/04 A2995 RMK AO2 T00450037 =
2015-04-25 03:35 METAR KPTB 250735Z AUTO 00000KT 10SM OVC110 05/03 A2995 RMK AO2 T00450034 =
2015-04-25 03:15 METAR KPTB 250715Z AUTO 00000KT 10SM SCT110 04/03 A2996 RMK AO2 T00410034 =
2015-04-25 02:55 METAR KPTB 250655Z AUTO 00000KT 10SM CLR 04/03 A2996 RMK AO2 T00380031 =
2015-04-25 02:35 METAR KPTB 250635Z AUTO 23003KT 10SM CLR 04/03 A2996 RMK AO2 T00400029 =
2015-04-25 02:15 METAR KPTB 250615Z AUTO 00000KT 10SM BKN110 05/03 A2995 RMK AO2 T00480033 =
2015-04-25 01:55 METAR KPTB 250555Z AUTO 00000KT 10SM BKN110 07/03 A2995 RMK AO2 T00660033 10108
                 20042 =
2015-04-25 01:35 METAR KPTB 250535Z AUTO 04004KT 10SM SCT110 08/01 A2995 RMK AO2 T00810014 =
2015-04-25 01:15 METAR KPTB 250515Z AUTO 04004KT 10SM CLR 08/02 A2995 RMK AO2 T00780020 =
2015-04-25 00:55 METAR KPTB 250455Z AUTO 03003KT 10SM CLR 04/03 A2996 RMK AO2 T00420027 401950006
                 =
2015-04-25 00:35 METAR KPTB 250435Z AUTO 00000KT 10SM CLR 05/04 A2996 RMK AO2 T00470036 =
2015-04-25 00:15 METAR KPTB 250415Z AUTO 00000KT 10SM CLR 05/03 A2996 RMK AO2 T00470032 =
2015-04-24 23:55 METAR KPTB 250355Z AUTO 00000KT 10SM CLR 06/03 A2996 RMK AO2 T00580029 =
2015-04-24 23:35 METAR KPTB 250335Z AUTO 35004KT 10SM CLR 06/03 A2996 RMK AO2 T00610029 =
2015-04-24 23:15 METAR KPTB 250315Z AUTO 00000KT 10SM CLR 06/03 A2996 RMK AO2 T00630030 =
2015-04-24 22:55 METAR KPTB 250255Z AUTO 03004KT 10SM CLR 06/04 A2996 RMK AO2 T00550041 =
2015-04-24 22:35 METAR KPTB 250235Z AUTO 00000KT 10SM CLR 05/03 A2995 RMK AO2 T00460032 =
2015-04-24 21:35 METAR KPTB 250135Z AUTO 00000KT 10SM CLR 07/03 A2995 RMK AO2 T00680026 =
2015-04-24 21:15 METAR KPTB 250115Z AUTO 00000KT 10SM CLR 07/03 A2994 RMK AO2 T00720030 =
2015-04-24 20:35 METAR KPTB 250035Z AUTO 00000KT 10SM CLR 08/03 A2994 RMK AO2 T00840030 =
2015-04-24 20:15 METAR KPTB 250015Z AUTO 00000KT 10SM CLR 10/04 A2993 RMK AO2 T00950037 =
2015-04-24 19:55 METAR KPTB 242355Z AUTO 00000KT 10SM CLR 11/03 A2992 RMK AO2 T01100034 10195
                 20109 =
2015-04-24 19:35 METAR KPTB 242335Z AUTO 00000KT 10SM CLR 14/00 A2991 RMK AO2 T01400004 =
2015-04-24 19:15 METAR KPTB 242315Z AUTO 00000KT 10SM CLR 17/M05 A2991 RMK AO2 T01701049 =

Support USWX by starting your Amazon purchase here.